Time;durP1;ratioP1;P1;durP2;ratioP2;P2;SDS_P1;SDS_P2;PMS_P1;PMS_P2;Temp;Humidity;BMP_temperature;BMP_pressure;BME280_temperature;BME280_humidity;BME280_pressure;Samples;Min_cycle;Max_cycle;Signal;HPM_P1;HPM_P2
2022/07/22 00:01:51;;;;;;;6.90;6.30;;;29.50;59.00;;;;;;5072469;28;20549;-68
2022/07/22 00:04:19;;;;;;;8.00;7.40;;;29.50;59.00;;;;;;5056274;28;20498;-70
2022/07/22 00:06:47;;;;;;;7.60;7.10;;;29.50;59.00;;;;;;5053673;28;20431;-68
2022/07/22 00:09:18;;;;;;;7.37;6.87;;;29.40;59.00;;;;;;5051305;28;20451;-68
2022/07/22 00:11:46;;;;;;;7.33;6.73;;;29.40;59.00;;;;;;5052509;28;20472;-71
2022/07/22 00:14:14;;;;;;;7.27;6.67;;;29.40;59.00;;;;;;5053053;28;20483;-68
2022/07/22 00:16:42;;;;;;;6.90;6.40;;;29.40;59.10;;;;;;5052834;28;20503;-68
2022/07/22 00:19:11;;;;;;;7.63;6.93;;;29.40;59.00;;;;;;5052617;28;20463;-68
2022/07/22 00:21:39;;;;;;;7.67;6.97;;;29.40;59.10;;;;;;5064752;28;20461;-69
2022/07/22 00:24:08;;;;;;;6.83;6.37;;;29.40;59.10;;;;;;5071390;28;20429;-68
2022/07/22 00:26:38;;;;;;;7.67;7.17;;;29.40;59.00;;;;;;5061243;28;20453;-68
2022/07/22 00:29:06;;;;;;;6.73;6.23;;;29.40;59.10;;;;;;5050981;28;20448;-70
2022/07/22 00:31:35;;;;;;;6.80;6.30;;;29.40;59.10;;;;;;5052456;28;20953;-68
2022/07/22 00:34:04;;;;;;;7.60;7.00;;;29.40;59.00;;;;;;5052183;28;20505;-68
2022/07/22 00:36:32;;;;;;;7.33;6.73;;;29.30;59.10;;;;;;5051761;28;20448;-68
2022/07/22 00:39:00;;;;;;;7.97;7.37;;;29.30;59.10;;;;;;5050866;28;20478;-68
2022/07/22 00:41:28;;;;;;;6.90;6.40;;;29.30;59.10;;;;;;5052607;28;20948;-68
2022/07/22 00:44:02;;;;;;;7.73;7.23;;;29.30;59.10;;;;;;5052020;28;20471;-68
2022/07/22 00:46:31;;;;;;;6.90;6.40;;;29.30;59.10;;;;;;5051549;28;20476;-68
2022/07/22 00:49:00;;;;;;;6.80;6.30;;;29.30;59.10;;;;;;5051895;28;20947;-68
2022/07/22 00:51:30;;;;;;;6.77;6.30;;;29.30;59.10;;;;;;5062280;28;20885;-68
2022/07/22 00:53:59;;;;;;;7.07;6.53;;;29.20;59.10;;;;;;5060303;28;20857;-68
2022/07/22 00:56:29;;;;;;;7.30;6.77;;;29.20;59.10;;;;;;5059266;28;20459;-68
2022/07/22 00:59:03;;;;;;;7.93;7.33;;;29.20;59.10;;;;;;5055091;28;20515;-68
2022/07/22 01:01:31;;;;;;;6.83;6.33;;;29.20;59.10;;;;;;5051785;28;20493;-68
2022/07/22 01:04:00;;;;;;;8.03;7.43;;;29.20;59.10;;;;;;5050816;28;20485;-70
2022/07/22 01:06:29;;;;;;;7.73;7.23;;;29.20;59.10;;;;;;5058348;28;20448;-68
2022/07/22 01:08:58;;;;;;;7.20;6.63;;;29.20;59.10;;;;;;5058095;28;20534;-68
2022/07/22 01:11:27;;;;;;;7.30;6.80;;;29.20;59.10;;;;;;5050548;28;20490;-68
2022/07/22 01:13:57;;;;;;;7.67;7.07;;;29.20;59.10;;;;;;5050266;28;20870;-68
2022/07/22 01:16:26;;;;;;;7.43;6.87;;;29.20;59.00;;;;;;5057642;28;20510;-68
2022/07/22 01:18:55;;;;;;;7.67;7.10;;;29.20;59.00;;;;;;5058068;28;20458;-68
2022/07/22 01:21:26;;;;;;;7.30;6.70;;;29.20;59.10;;;;;;5056132;28;20494;-69
2022/07/22 01:23:54;;;;;;;8.63;7.83;;;29.10;59.10;;;;;;5071471;28;20465;-68
2022/07/22 01:26:22;;;;;;;7.27;6.70;;;29.10;59.00;;;;;;5069169;28;20469;-68
2022/07/22 01:28:51;;;;;;;7.30;6.80;;;29.10;59.10;;;;;;5054289;28;20496;-68
2022/07/22 01:31:19;;;;;;;7.27;6.77;;;29.10;59.00;;;;;;5055002;28;20541;-72
2022/07/22 01:33:48;;;;;;;7.77;7.27;;;29.10;59.10;;;;;;5067165;28;20460;-69
2022/07/22 01:36:16;;;;;;;7.83;7.23;;;29.10;59.00;;;;;;5062425;28;20475;-68
2022/07/22 01:38:46;;;;;;;7.80;7.20;;;29.10;59.10;;;;;;5070741;28;20458;-68
2022/07/22 01:41:14;;;;;;;7.40;6.77;;;29.10;59.10;;;;;;5075665;28;20933;-68
2022/07/22 01:43:43;;;;;;;8.20;7.60;;;29.10;59.00;;;;;;5075736;28;20442;-68
2022/07/22 01:46:12;;;;;;;6.60;6.17;;;29.00;59.10;;;;;;5073252;28;20982;-68
2022/07/22 01:48:42;;;;;;;7.10;6.60;;;29.00;59.00;;;;;;5074029;28;20461;-68
2022/07/22 01:51:10;;;;;;;7.77;7.17;;;29.00;59.00;;;;;;5074207;28;20857;-68
2022/07/22 01:53:39;;;;;;;7.37;6.87;;;29.00;59.00;;;;;;5073219;28;20874;-68
2022/07/22 01:56:09;;;;;;;7.70;7.20;;;29.00;59.00;;;;;;5068063;28;20856;-68
2022/07/22 01:58:45;;;;;;;7.50;6.80;;;29.00;59.00;;;;;;5054213;28;20471;-68
2022/07/22 02:01:15;;;;;;;6.97;6.47;;;29.00;59.00;;;;;;5053831;28;20955;-68
2022/07/22 02:03:43;;;;;;;7.40;6.70;;;29.00;59.00;;;;;;5053661;28;20491;-69
2022/07/22 02:06:12;;;;;;;6.90;6.40;;;29.00;59.00;;;;;;5060224;28;20466;-68
2022/07/22 02:08:40;;;;;;;7.40;6.80;;;28.90;59.00;;;;;;5058935;28;20507;-68
2022/07/22 02:11:15;;;;;;;7.30;6.80;;;28.90;59.00;;;;;;5057190;28;20468;-68
2022/07/22 02:13:56;;;;;;;7.80;7.10;;;28.90;59.00;;;;;;5053693;28;20484;-68
2022/07/22 02:16:25;;;;;;;7.30;6.70;;;28.90;58.90;;;;;;5054214;28;20977;-68
2022/07/22 02:18:54;;;;;;;8.00;7.40;;;28.90;58.90;;;;;;5053278;28;20952;-68
2022/07/22 02:21:26;;;;;;;6.93;6.53;;;28.90;58.90;;;;;;5060449;28;20460;-68
2022/07/22 02:23:59;;;;;;;7.47;6.97;;;28.90;58.90;;;;;;5057242;28;20973;-68
2022/07/22 02:26:29;;;;;;;7.93;7.43;;;28.90;58.90;;;;;;5062203;28;20465;-68
2022/07/22 02:28:57;;;;;;;7.37;6.87;;;28.90;58.90;;;;;;5059066;28;20453;-68
2022/07/22 02:31:26;;;;;;;6.70;6.30;;;28.90;58.90;;;;;;5053249;28;20552;-68
2022/07/22 02:33:55;;;;;;;7.43;6.47;;;28.80;58.90;;;;;;5054234;28;20503;-68
2022/07/22 02:36:27;;;;;;;7.53;6.97;;;28.80;59.00;;;;;;5060402;28;20956;-68
2022/07/22 02:38:58;;;;;;;7.60;7.00;;;28.80;58.90;;;;;;5067494;28;20451;-71
2022/07/22 02:41:27;;;;;;;8.77;8.00;;;28.80;58.90;;;;;;5059805;28;20560;-70
2022/07/22 02:43:59;;;;;;;7.30;6.70;;;28.80;59.00;;;;;;5064473;28;20527;-68
2022/07/22 02:46:29;;;;;;;7.43;6.83;;;28.80;59.00;;;;;;5065669;28;21039;-68
2022/07/22 02:49:05;;;;;;;7.50;6.93;;;28.80;59.00;;;;;;5073022;28;20813;-68
2022/07/22 02:51:33;;;;;;;7.47;6.87;;;28.80;59.00;;;;;;5061030;28;20665;-69
2022/07/22 02:54:01;;;;;;;7.67;7.17;;;28.80;59.00;;;;;;5053173;28;20525;-68
2022/07/22 02:56:30;;;;;;;6.63;6.17;;;28.80;59.00;;;;;;5054727;28;20522;-68
2022/07/22 02:58:59;;;;;;;7.60;7.00;;;28.70;59.00;;;;;;5058661;28;20477;-69
2022/07/22 03:01:28;;;;;;;8.17;7.47;;;28.70;59.10;;;;;;5062432;28;20528;-68
2022/07/22 03:04:00;;;;;;;6.80;6.30;;;28.70;59.10;;;;;;5053348;28;20432;-68
2022/07/22 03:06:31;;;;;;;7.70;7.20;;;28.70;59.10;;;;;;5053744;28;20883;-68
2022/07/22 03:09:04;;;;;;;7.37;6.87;;;28.70;59.10;;;;;;5051726;28;20471;-69
2022/07/22 03:11:35;;;;;;;7.97;7.37;;;28.70;59.10;;;;;;5052448;28;20467;-68
2022/07/22 03:14:06;;;;;;;7.30;6.80;;;28.70;59.10;;;;;;5052445;28;20505;-68
2022/07/22 03:16:34;;;;;;;7.57;6.97;;;28.70;59.10;;;;;;5057093;28;20461;-68
2022/07/22 03:19:02;;;;;;;7.27;6.77;;;28.70;59.20;;;;;;5052935;28;20547;-69
2022/07/22 03:21:31;;;;;;;8.93;8.23;;;28.60;59.20;;;;;;5053275;28;20468;-70
2022/07/22 03:23:59;;;;;;;6.63;6.17;;;28.60;59.20;;;;;;5053541;28;20867;-68
2022/07/22 03:26:27;;;;;;;7.87;7.27;;;28.60;59.20;;;;;;5055469;28;20467;-68
2022/07/22 03:28:55;;;;;;;7.70;7.10;;;28.60;59.20;;;;;;5053662;28;20541;-68
2022/07/22 03:31:26;;;;;;;7.20;6.60;;;28.60;59.10;;;;;;5053634;28;20801;-68
2022/07/22 03:33:55;;;;;;;8.60;8.00;;;28.60;59.10;;;;;;5070211;28;20481;-68
2022/07/22 03:36:23;;;;;;;7.40;6.90;;;28.60;59.10;;;;;;5060896;28;20458;-68
2022/07/22 03:38:53;;;;;;;8.60;8.00;;;28.60;59.10;;;;;;5051491;28;20487;-68
2022/07/22 03:41:23;;;;;;;7.53;6.90;;;28.60;59.20;;;;;;5071957;28;20958;-69
2022/07/22 03:43:51;;;;;;;7.83;7.30;;;28.60;59.10;;;;;;5071820;28;20550;-68
2022/07/22 03:46:20;;;;;;;7.57;6.87;;;28.60;59.10;;;;;;5071076;28;20510;-68
2022/07/22 03:48:51;;;;;;;7.90;7.20;;;28.60;59.20;;;;;;5056739;28;20554;-68
2022/07/22 03:51:20;;;;;;;7.00;6.50;;;28.50;59.10;;;;;;5067361;28;20569;-68
2022/07/22 03:53:49;;;;;;;7.70;6.77;;;28.50;59.10;;;;;;5051597;28;20474;-68
2022/07/22 03:56:17;;;;;;;7.50;6.97;;;28.50;59.10;;;;;;5056894;28;20517;-68
2022/07/22 03:58:46;;;;;;;7.33;6.80;;;28.50;59.10;;;;;;5071477;28;20485;-68
2022/07/22 04:01:14;;;;;;;7.60;6.90;;;28.50;59.10;;;;;;5061623;28;20456;-68
2022/07/22 04:03:43;;;;;;;7.70;7.20;;;28.50;59.00;;;;;;5050981;28;20460;-71
2022/07/22 04:06:29;;;;;;;7.70;7.10;;;28.50;59.10;;;;;;5054416;28;21452;-68
2022/07/22 04:09:03;;;;;;;7.90;7.23;;;28.50;59.10;;;;;;5051658;28;20474;-68
2022/07/22 04:11:32;;;;;;;8.47;7.77;;;28.50;59.00;;;;;;5053276;28;20463;-69
2022/07/22 04:14:01;;;;;;;6.77;6.30;;;28.50;59.00;;;;;;5054353;28;20978;-69
2022/07/22 04:16:29;;;;;;;7.60;7.10;;;28.50;59.10;;;;;;5052128;28;21026;-68
2022/07/22 04:19:07;;;;;;;8.20;7.57;;;28.50;59.00;;;;;;5053035;28;20553;-68
2022/07/22 04:21:49;;;;;;;7.43;6.77;;;28.50;59.00;;;;;;5054942;28;20476;-68
2022/07/22 04:24:21;;;;;;;8.37;7.67;;;28.50;59.00;;;;;;5049542;28;20466;-68
2022/07/22 04:26:49;;;;;;;7.70;7.20;;;28.50;59.00;;;;;;5052821;28;20466;-68
2022/07/22 04:29:18;;;;;;;6.70;6.30;;;28.50;59.00;;;;;;5051976;28;20465;-68
2022/07/22 04:31:46;;;;;;;6.93;6.43;;;28.50;59.00;;;;;;5052331;28;20951;-68
2022/07/22 04:34:18;;;;;;;8.57;7.80;;;28.50;59.00;;;;;;5051450;28;20484;-70
2022/07/22 04:36:49;;;;;;;7.10;6.60;;;28.50;59.00;;;;;;5051559;28;20504;-71
2022/07/22 04:39:19;;;;;;;7.07;6.57;;;28.50;59.00;;;;;;5050960;28;20451;-68
2022/07/22 04:41:56;;;;;;;7.33;6.73;;;28.50;59.00;;;;;;5051885;28;20491;-68
2022/07/22 04:44:28;;;;;;;7.93;7.23;;;28.50;59.00;;;;;;5052304;28;20474;-67
2022/07/22 04:46:57;;;;;;;7.63;7.03;;;28.50;59.00;;;;;;5052816;28;20817;-68
2022/07/22 04:49:26;;;;;;;7.40;6.80;;;28.50;59.00;;;;;;5060356;28;20476;-71
2022/07/22 04:52:00;;;;;;;8.00;7.30;;;28.50;59.00;;;;;;5050775;28;20571;-69
2022/07/22 04:54:39;;;;;;;7.17;6.67;;;28.50;59.00;;;;;;5051418;28;20499;-68
2022/07/22 04:57:08;;;;;;;10.07;7.33;;;28.50;59.10;;;;;;5052915;28;20996;-68
2022/07/22 04:59:36;;;;;;;7.60;7.03;;;28.50;59.10;;;;;;5054374;28;20464;-68
2022/07/22 05:02:04;;;;;;;7.67;6.80;;;28.50;59.10;;;;;;5059642;28;20510;-68
2022/07/22 05:04:34;;;;;;;8.03;7.37;;;28.50;59.00;;;;;;5051318;28;20472;-68
2022/07/22 05:07:07;;;;;;;7.80;7.00;;;28.50;59.10;;;;;;5052413;28;20474;-68
2022/07/22 05:09:36;;;;;;;7.83;7.20;;;28.50;59.00;;;;;;5056437;28;20461;-68
2022/07/22 05:12:05;;;;;;;7.80;7.13;;;28.50;59.00;;;;;;5061056;28;20529;-68
2022/07/22 05:14:34;;;;;;;13.03;7.83;;;28.50;59.00;;;;;;5052346;28;20484;-68
2022/07/22 05:17:02;;;;;;;7.30;6.60;;;28.50;59.10;;;;;;5055823;28;20515;-68
2022/07/22 05:19:32;;;;;;;8.13;7.30;;;28.50;59.20;;;;;;5049434;28;20464;-70
2022/07/22 05:22:01;;;;;;;9.33;7.90;;;28.50;59.30;;;;;;5055016;28;20571;-70
2022/07/22 05:24:30;;;;;;;7.90;7.10;;;28.50;59.40;;;;;;5051589;28;20960;-68
2022/07/22 05:26:59;;;;;;;10.03;7.37;;;28.50;59.40;;;;;;5055256;28;20560;-68
2022/07/22 05:29:28;;;;;;;8.60;7.33;;;28.50;59.30;;;;;;5054380;28;20477;-69
2022/07/22 05:31:56;;;;;;;7.87;7.10;;;28.50;59.30;;;;;;5053756;28;20480;-68
2022/07/22 05:34:25;;;;;;;8.17;7.57;;;28.50;59.40;;;;;;5057546;28;20476;-69
2022/07/22 05:36:55;;;;;;;9.50;6.93;;;28.50;59.50;;;;;;5067712;28;20819;-69
2022/07/22 05:39:23;;;;;;;7.67;7.07;;;28.50;59.50;;;;;;5049293;28;20977;-68
2022/07/22 05:41:53;;;;;;;9.07;8.27;;;28.50;59.60;;;;;;5054564;28;20460;-69
2022/07/22 05:44:24;;;;;;;7.40;6.80;;;28.50;59.70;;;;;;5050106;28;20491;-69
2022/07/22 05:46:52;;;;;;;8.17;7.47;;;28.50;59.70;;;;;;5054676;28;20457;-70
2022/07/22 05:49:26;;;;;;;8.40;6.73;;;28.50;59.70;;;;;;5051523;28;20895;-70
2022/07/22 05:52:00;;;;;;;8.03;7.30;;;28.50;59.70;;;;;;5052427;28;20928;-69
2022/07/22 05:54:29;;;;;;;8.90;8.03;;;28.50;59.70;;;;;;5051600;28;20478;-68
2022/07/22 05:56:58;;;;;;;7.53;6.93;;;28.50;59.70;;;;;;5049339;28;20463;-69
2022/07/22 05:59:27;;;;;;;8.37;7.47;;;28.50;59.80;;;;;;5059670;28;20448;-68
2022/07/22 06:01:55;;;;;;;8.07;7.47;;;28.50;59.70;;;;;;5052516;28;20811;-70
2022/07/22 06:04:41;;;;;;;8.67;7.90;;;28.60;59.70;;;;;;5050971;28;20554;-69
2022/07/22 06:07:09;;;;;;;7.97;7.37;;;28.60;59.80;;;;;;5056744;28;20464;-69
2022/07/22 06:09:40;;;;;;;7.23;6.63;;;28.60;59.70;;;;;;5052096;28;20475;-72
2022/07/22 06:12:10;;;;;;;8.10;7.50;;;28.60;59.70;;;;;;5056010;28;20458;-69
2022/07/22 06:14:38;;;;;;;8.57;7.73;;;28.60;59.80;;;;;;5056808;28;20489;-69
2022/07/22 06:17:06;;;;;;;8.47;7.77;;;28.60;59.80;;;;;;5058656;28;20470;-71
2022/07/22 06:19:35;;;;;;;9.30;8.47;;;28.60;59.80;;;;;;5055650;28;20448;-76
2022/07/22 06:22:03;;;;;;;8.50;7.70;;;28.60;59.70;;;;;;5068160;28;20463;-75
2022/07/22 06:24:31;;;;;;;8.00;7.30;;;28.60;60.20;;;;;;5059756;28;20563;-76
2022/07/22 06:27:00;;;;;;;7.50;6.90;;;28.70;60.20;;;;;;5054626;28;20452;-76
2022/07/22 06:29:29;;;;;;;8.40;7.67;;;28.70;60.10;;;;;;5057937;28;20454;-75
2022/07/22 06:31:58;;;;;;;8.57;7.77;;;28.70;60.20;;;;;;5058909;28;20817;-75
2022/07/22 06:34:26;;;;;;;8.47;7.67;;;28.70;60.20;;;;;;5053646;28;20832;-75
2022/07/22 06:37:02;;;;;;;7.90;7.30;;;28.70;60.20;;;;;;5051920;28;20526;-75
2022/07/22 06:39:30;;;;;;;8.37;7.70;;;28.70;60.10;;;;;;5057448;28;20501;-75
2022/07/22 06:42:17;;;;;;;11.50;7.97;;;28.70;60.10;;;;;;5061633;28;20461;-74
2022/07/22 06:45:06;;;;;;;8.27;7.60;;;28.70;60.10;;;;;;5055255;28;20436;-77
2022/07/22 06:47:40;;;;;;;9.00;8.23;;;28.80;60.00;;;;;;5059331;28;20447;-77
2022/07/22 06:50:12;;;;;;;8.40;7.70;;;28.80;60.00;;;;;;5061299;28;20579;-75
2022/07/22 06:52:42;;;;;;;8.87;8.17;;;28.80;60.00;;;;;;5057156;28;20484;-75
2022/07/22 06:55:11;;;;;;;8.03;7.53;;;28.80;60.00;;;;;;5055790;28;20627;-73
2022/07/22 06:57:45;;;;;;;7.50;7.00;;;28.80;60.00;;;;;;5064645;28;20562;-75
2022/07/22 07:00:17;;;;;;;7.10;6.70;;;28.90;59.80;;;;;;5053646;28;20470;-74
2022/07/22 07:03:08;;;;;;;7.97;7.37;;;28.90;59.90;;;;;;5057508;28;20460;-72
2022/07/22 07:06:00;;;;;;;8.00;7.40;;;28.90;59.80;;;;;;5067911;28;20975;-73
2022/07/22 07:08:39;;;;;;;8.00;7.20;;;28.90;59.80;;;;;;5064528;28;20472;-75
2022/07/22 07:11:08;;;;;;;8.00;7.40;;;28.90;59.80;;;;;;5059811;28;20564;-75
2022/07/22 07:13:37;;;;;;;7.90;7.30;;;29.00;59.80;;;;;;5062844;28;20468;-75
2022/07/22 07:16:09;;;;;;;8.80;7.67;;;29.00;59.80;;;;;;5067343;28;20523;-74
2022/07/22 07:18:38;;;;;;;8.50;7.70;;;29.00;59.80;;;;;;5056396;28;20941;-73
2022/07/22 07:21:07;;;;;;;8.17;7.60;;;29.00;59.70;;;;;;5070724;28;20448;-73
2022/07/22 07:23:37;;;;;;;8.83;7.97;;;29.00;59.70;;;;;;5056524;28;20483;-75
2022/07/22 07:26:06;;;;;;;7.93;7.33;;;29.10;59.70;;;;;;5057045;28;20978;-74
2022/07/22 07:28:34;;;;;;;7.60;7.00;;;29.10;59.70;;;;;;5067706;28;20879;-73
2022/07/22 07:31:18;;;;;;;7.73;7.00;;;29.10;59.60;;;;;;5054912;28;20943;-73
2022/07/22 07:33:49;;;;;;;8.40;7.70;;;29.10;59.60;;;;;;5059027;28;20465;-75
2022/07/22 07:36:18;;;;;;;7.93;7.10;;;29.10;59.50;;;;;;5054497;28;20528;-69
2022/07/22 07:38:50;;;;;;;8.10;7.40;;;29.10;59.40;;;;;;5055959;28;20465;-69
2022/07/22 07:41:19;;;;;;;7.27;6.77;;;29.20;59.50;;;;;;5055878;28;20943;-70
2022/07/22 07:43:50;;;;;;;8.00;7.20;;;29.20;59.50;;;;;;5055299;28;20519;-69
2022/07/22 07:46:20;;;;;;;9.80;9.00;;;29.20;59.60;;;;;;5062920;28;21023;-71
2022/07/22 07:48:50;;;;;;;7.70;7.00;;;29.20;59.50;;;;;;5065675;28;20479;-70
2022/07/22 07:51:18;;;;;;;8.67;7.97;;;29.20;59.50;;;;;;5066495;28;20565;-69
2022/07/22 07:53:47;;;;;;;8.47;7.57;;;29.30;59.40;;;;;;5065863;28;20934;-69
2022/07/22 07:56:17;;;;;;;8.10;7.50;;;29.30;59.30;;;;;;5054334;28;20977;-70
2022/07/22 07:58:45;;;;;;;8.10;7.30;;;29.30;59.30;;;;;;5054658;28;20443;-70
2022/07/22 08:01:35;;;;;;;6.83;6.43;;;29.30;59.20;;;;;;5062901;28;20463;-70
2022/07/22 08:04:23;;;;;;;7.40;6.80;;;29.40;59.20;;;;;;5057668;28;20504;-69
2022/07/22 08:07:07;;;;;;;7.37;6.60;;;29.40;59.10;;;;;;5062350;28;20967;-70
2022/07/22 08:09:38;;;;;;;7.57;7.07;;;29.40;59.10;;;;;;5067994;28;20465;-71
2022/07/22 08:12:14;;;;;;;7.43;6.73;;;29.40;59.00;;;;;;5055203;28;20473;-71
2022/07/22 08:14:58;;;;;;;8.27;7.50;;;29.40;59.00;;;;;;5052801;28;20825;-70
2022/07/22 08:17:48;;;;;;;6.57;6.03;;;29.40;59.00;;;;;;5054874;28;20551;-70
2022/07/22 08:20:16;;;;;;;8.70;7.90;;;29.40;59.00;;;;;;5065542;28;20467;-69
2022/07/22 08:22:50;;;;;;;7.73;7.03;;;29.40;59.00;;;;;;5060956;28;20469;-69
2022/07/22 08:25:19;;;;;;;7.93;7.20;;;29.40;59.00;;;;;;5060709;28;20459;-70
2022/07/22 08:27:47;;;;;;;7.53;6.83;;;29.50;59.00;;;;;;5053457;28;20462;-70
2022/07/22 08:30:16;;;;;;;7.67;6.87;;;29.50;59.00;;;;;;5064107;28;20869;-71
2022/07/22 08:32:44;;;;;;;8.10;7.30;;;29.50;59.00;;;;;;5061919;28;20462;-70
2022/07/22 08:35:14;;;;;;;7.90;7.10;;;29.50;59.00;;;;;;5059440;28;20603;-70
2022/07/22 08:37:45;;;;;;;7.57;6.87;;;29.50;59.00;;;;;;5057232;28;20472;-69
2022/07/22 08:40:15;;;;;;;7.50;6.90;;;29.50;58.90;;;;;;5057091;28;20486;-70
2022/07/22 08:42:45;;;;;;;7.33;6.63;;;29.50;59.00;;;;;;5067837;28;20523;-70
2022/07/22 08:45:16;;;;;;;7.23;6.73;;;29.60;58.90;;;;;;5055009;28;20489;-70
2022/07/22 08:47:49;;;;;;;8.33;7.67;;;29.60;58.90;;;;;;5056812;28;20516;-71
2022/07/22 08:50:25;;;;;;;7.07;6.57;;;29.60;58.90;;;;;;5067440;28;20497;-69
2022/07/22 08:53:15;;;;;;;7.13;6.73;;;29.60;58.90;;;;;;5057565;28;20519;-70
2022/07/22 08:55:47;;;;;;;6.83;6.43;;;29.60;58.90;;;;;;5062362;28;20865;-70
2022/07/22 08:58:17;;;;;;;7.20;6.70;;;29.60;58.90;;;;;;5050738;28;20473;-69
2022/07/22 09:00:46;;;;;;;7.60;7.00;;;29.60;58.80;;;;;;5062123;28;20456;-71
2022/07/22 09:03:20;;;;;;;7.63;7.03;;;29.60;58.80;;;;;;5050465;28;20454;-69
2022/07/22 09:05:51;;;;;;;8.53;7.73;;;29.60;58.80;;;;;;5057825;28;21026;-69
2022/07/22 09:08:20;;;;;;;7.10;6.60;;;29.60;58.80;;;;;;5052117;28;20458;-69
2022/07/22 09:11:00;;;;;;;7.77;7.03;;;29.70;58.70;;;;;;5056852;28;20475;-71
2022/07/22 09:14:01;;;;;;;8.53;7.93;;;29.70;58.70;;;;;;5059144;28;20461;-71
2022/07/22 09:16:43;;;;;;;8.27;7.47;;;29.70;58.70;;;;;;5052826;28;20979;-70
2022/07/22 09:19:33;;;;;;;8.27;7.67;;;29.70;58.60;;;;;;5063528;28;21101;-71
2022/07/22 09:22:34;;;;;;;8.83;8.00;;;29.70;58.50;;;;;;5061093;28;20486;-71
2022/07/22 09:25:29;;;;;;;7.33;6.80;;;29.70;58.40;;;;;;5061303;28;20486;-72
2022/07/22 09:28:23;;;;;;;8.40;7.60;;;29.70;58.30;;;;;;5051351;28;20463;-71
2022/07/22 09:31:25;;;;;;;8.77;8.00;;;29.70;58.30;;;;;;5059058;28;20547;-69
2022/07/22 09:34:27;;;;;;;8.10;7.50;;;29.70;58.30;;;;;;5050140;28;20470;-69
2022/07/22 09:36:59;;;;;;;8.20;7.40;;;29.70;58.30;;;;;;5056567;28;20848;-71
2022/07/22 09:39:32;;;;;;;8.33;7.50;;;29.70;58.30;;;;;;5065427;28;20579;-69
2022/07/22 09:42:05;;;;;;;8.17;7.57;;;29.70;58.30;;;;;;5069027;28;20527;-69
2022/07/22 09:44:34;;;;;;;8.17;7.47;;;29.70;58.30;;;;;;5058978;28;20481;-69
2022/07/22 09:47:29;;;;;;;7.90;7.40;;;29.70;58.30;;;;;;5065292;28;20468;-73
2022/07/22 09:50:29;;;;;;;8.47;7.70;;;29.70;58.30;;;;;;5045632;28;21038;-69
2022/07/22 09:53:13;;;;;;;7.87;7.37;;;29.70;58.30;;;;;;5068077;28;20510;-69
2022/07/22 09:55:48;;;;;;;8.27;7.60;;;29.70;58.30;;;;;;5059405;28;20556;-69
2022/07/22 09:58:17;;;;;;;8.50;7.70;;;29.70;58.30;;;;;;5058280;28;20502;-69
2022/07/22 10:00:47;;;;;;;8.70;8.10;;;29.70;58.30;;;;;;5058396;28;20461;-69
2022/07/22 10:03:25;;;;;;;7.83;7.23;;;29.70;58.30;;;;;;5054400;28;20552;-69
2022/07/22 10:05:55;;;;;;;8.67;8.00;;;29.70;58.30;;;;;;5056672;28;20576;-69
2022/07/22 10:08:26;;;;;;;8.60;7.80;;;29.70;58.30;;;;;;5059015;28;20456;-69
2022/07/22 10:11:00;;;;;;;10.23;8.43;;;29.70;58.30;;;;;;5061084;28;20462;-70
2022/07/22 10:13:29;;;;;;;9.10;8.30;;;29.70;58.40;;;;;;5060218;28;20562;-71
2022/07/22 10:15:59;;;;;;;7.90;7.30;;;29.70;58.30;;;;;;5058389;28;20552;-71
2022/07/22 10:18:29;;;;;;;9.50;8.63;;;29.80;58.40;;;;;;5059752;28;20468;-70
2022/07/22 10:21:07;;;;;;;8.20;7.50;;;29.80;58.40;;;;;;5056941;28;20468;-73
2022/07/22 10:23:35;;;;;;;8.27;7.57;;;29.80;58.40;;;;;;5053068;28;20470;-71
2022/07/22 10:26:09;;;;;;;9.40;8.60;;;29.80;58.40;;;;;;5055326;28;20478;-70
2022/07/22 10:28:39;;;;;;;9.00;8.37;;;29.80;58.80;;;;;;5055071;28;20862;-71
2022/07/22 10:31:21;;;;;;;9.47;8.77;;;29.80;59.00;;;;;;5052188;28;20504;-70
2022/07/22 10:33:52;;;;;;;9.03;8.33;;;29.80;59.10;;;;;;5055248;28;20438;-70
2022/07/22 10:36:36;;;;;;;9.23;8.43;;;29.80;59.20;;;;;;5056339;28;20447;-76
2022/07/22 10:39:07;;;;;;;8.67;7.97;;;29.80;59.40;;;;;;5061753;28;20469;-72
2022/07/22 10:41:38;;;;;;;8.50;7.80;;;29.90;59.50;;;;;;5061154;28;20466;-72
2022/07/22 10:44:07;;;;;;;9.60;8.90;;;29.90;59.60;;;;;;5069151;28;20444;-71
2022/07/22 10:46:53;;;;;;;9.40;8.13;;;29.90;59.70;;;;;;5069817;28;20487;-70
2022/07/22 10:49:24;;;;;;;8.77;7.70;;;29.90;59.70;;;;;;5054808;28;20458;-70
2022/07/22 10:52:11;;;;;;;10.70;9.10;;;29.90;59.60;;;;;;5060637;28;20468;-72
2022/07/22 10:55:16;;;;;;;10.23;8.57;;;29.90;59.70;;;;;;5062563;28;20564;-71
2022/07/22 10:57:48;;;;;;;9.60;8.80;;;29.90;59.90;;;;;;5051360;28;20482;-76
2022/07/22 11:00:16;;;;;;;9.43;8.73;;;30.00;59.90;;;;;;5060437;28;20940;-70
2022/07/22 11:02:45;;;;;;;9.07;8.37;;;30.00;59.60;;;;;;5059576;28;21098;-73
2022/07/22 11:05:13;;;;;;;8.83;8.13;;;30.00;59.40;;;;;;5056038;28;20757;-70
2022/07/22 11:07:42;;;;;;;9.27;8.57;;;30.00;59.30;;;;;;5055474;28;20549;-70
2022/07/22 11:10:12;;;;;;;9.33;8.53;;;30.00;59.20;;;;;;5050949;28;20893;-70
2022/07/22 11:12:49;;;;;;;8.50;7.80;;;30.00;59.10;;;;;;5057456;28;20932;-72
2022/07/22 11:15:18;;;;;;;8.90;8.30;;;30.10;59.00;;;;;;5056073;28;20463;-70
2022/07/22 11:17:46;;;;;;;9.00;8.20;;;30.10;58.90;;;;;;5059948;28;20524;-71
2022/07/22 11:20:14;;;;;;;8.13;7.53;;;30.10;58.70;;;;;;5060191;28;20537;-70
2022/07/22 11:22:47;;;;;;;8.97;8.20;;;30.10;58.60;;;;;;5055994;28;20452;-70
2022/07/22 11:25:16;;;;;;;8.80;8.10;;;30.10;58.50;;;;;;5056247;28;20482;-70
2022/07/22 11:27:52;;;;;;;8.70;8.10;;;30.10;58.40;;;;;;5053667;28;21062;-73
2022/07/22 11:30:20;;;;;;;8.37;7.67;;;30.10;58.30;;;;;;5052230;28;20494;-70
2022/07/22 11:32:49;;;;;;;8.10;7.50;;;30.10;58.30;;;;;;5051076;28;20485;-71
2022/07/22 11:35:17;;;;;;;8.87;8.07;;;30.10;58.20;;;;;;5057780;28;20540;-70
2022/07/22 11:37:56;;;;;;;9.43;8.60;;;30.10;58.40;;;;;;5058404;28;20478;-70
2022/07/22 11:40:32;;;;;;;9.43;8.30;;;30.10;59.10;;;;;;5052059;28;20480;-70
2022/07/22 11:43:05;;;;;;;8.13;7.53;;;30.20;59.60;;;;;;5059018;28;20549;-73
2022/07/22 11:45:33;;;;;;;9.33;8.43;;;30.20;59.50;;;;;;5055181;28;20443;-71
2022/07/22 11:48:09;;;;;;;8.93;8.10;;;30.30;59.40;;;;;;5056029;28;20508;-71
2022/07/22 11:50:37;;;;;;;9.00;8.33;;;30.40;59.70;;;;;;5057487;28;20502;-70
2022/07/22 11:53:06;;;;;;;8.13;7.50;;;30.40;59.80;;;;;;5052537;28;20950;-71
2022/07/22 11:55:35;;;;;;;8.67;8.03;;;30.50;59.40;;;;;;5052095;28;20500;-71
2022/07/22 11:58:05;;;;;;;7.53;7.03;;;30.60;59.20;;;;;;5054090;28;20481;-71
2022/07/22 12:00:33;;;;;;;8.80;8.20;;;30.60;58.70;;;;;;5066751;28;20504;-71
2022/07/22 12:03:01;;;;;;;7.87;7.27;;;30.70;58.40;;;;;;5063184;28;20839;-70
2022/07/22 12:05:30;;;;;;;11.63;8.50;;;30.90;58.00;;;;;;5063949;28;21099;-70
2022/07/22 12:07:59;;;;;;;8.77;8.17;;;31.00;57.50;;;;;;5059257;28;20919;-70
2022/07/22 12:10:28;;;;;;;8.53;7.90;;;31.10;56.20;;;;;;5059009;28;20819;-70
2022/07/22 12:12:56;;;;;;;7.77;7.10;;;31.00;56.20;;;;;;5062487;28;20482;-70
2022/07/22 12:15:26;;;;;;;9.03;8.43;;;31.00;56.40;;;;;;5058235;28;20482;-70
2022/07/22 12:18:21;;;;;;;8.13;7.53;;;31.20;56.60;;;;;;5056025;28;20601;-75
2022/07/22 12:20:51;;;;;;;8.27;7.67;;;31.40;56.40;;;;;;5067974;28;20462;-70
2022/07/22 12:23:22;;;;;;;10.27;8.20;;;31.60;56.00;;;;;;5060634;28;20442;-70
2022/07/22 12:25:57;;;;;;;9.00;8.30;;;31.80;55.70;;;;;;5071455;28;20454;-70
2022/07/22 12:28:26;;;;;;;8.40;7.80;;;32.00;55.00;;;;;;5065410;28;20458;-71
2022/07/22 12:30:57;;;;;;;8.80;8.20;;;32.20;54.80;;;;;;5058913;28;20990;-70
2022/07/22 12:33:27;;;;;;;8.10;7.43;;;32.30;54.60;;;;;;5058109;28;21010;-70
2022/07/22 12:36:05;;;;;;;7.63;7.13;;;32.50;54.20;;;;;;5056734;28;20933;-70
2022/07/22 12:38:36;;;;;;;7.50;7.00;;;32.60;53.70;;;;;;5057372;28;20474;-71
2022/07/22 12:41:24;;;;;;;8.50;7.87;;;32.70;53.60;;;;;;5059718;28;20451;-70
2022/07/22 12:43:52;;;;;;;7.63;7.13;;;32.90;53.40;;;;;;5054688;28;20516;-69
2022/07/22 12:46:22;;;;;;;8.27;7.67;;;33.00;53.00;;;;;;5055544;28;20916;-69
2022/07/22 12:48:52;;;;;;;8.20;7.70;;;33.10;52.70;;;;;;5059774;28;20453;-70
2022/07/22 12:51:21;;;;;;;8.23;7.60;;;33.20;52.50;;;;;;5065743;28;20482;-70
2022/07/22 12:53:49;;;;;;;8.80;8.10;;;33.30;52.30;;;;;;5057165;28;20490;-70
2022/07/22 12:56:21;;;;;;;8.57;7.97;;;33.20;52.10;;;;;;5058464;28;20453;-70
2022/07/22 12:58:50;;;;;;;8.67;8.07;;;33.20;52.30;;;;;;5058580;28;20569;-69
2022/07/22 13:01:18;;;;;;;8.60;7.90;;;33.10;52.30;;;;;;5060309;28;20512;-70
2022/07/22 13:03:48;;;;;;;8.10;7.50;;;33.10;52.30;;;;;;5055612;28;20443;-70
2022/07/22 13:06:17;;;;;;;8.67;8.07;;;33.00;52.40;;;;;;5058992;28;20879;-70
2022/07/22 13:08:45;;;;;;;9.23;8.60;;;33.00;52.50;;;;;;5055258;28;20458;-70
2022/07/22 13:11:14;;;;;;;8.93;8.10;;;33.00;52.60;;;;;;5054742;28;20492;-70